Time;durP1;ratioP1;P1;durP2;ratioP2;P2;SDS_P1;SDS_P2;PMS_P1;PMS_P2;Temp;Humidity;BMP_temperature;BMP_pressure;BME280_temperature;BME280_humidity;BME280_pressure;Samples;Min_cycle;Max_cycle;Signal;HPM_P1;HPM_P2
2022/06/21 00:00:01;;;;;;;11.05;5.43;;;;;;;;;;4999492;28;20029;-90
2022/06/21 00:02:27;;;;;;;8.07;5.70;;;;;;;;;;4999678;28;20026;-89
2022/06/21 00:04:54;;;;;;;8.80;5.47;;;;;;;;;;4998923;28;20048;-89
2022/06/21 00:07:26;;;;;;;7.93;5.63;;;;;;;;;;4999902;28;20026;-90
2022/06/21 00:09:52;;;;;;;10.55;5.60;;;;;;;;;;5016515;28;20052;-89
2022/06/21 00:12:18;;;;;;;5.72;5.15;;;;;;;;;;5016556;28;20030;-89
2022/06/21 00:14:44;;;;;;;7.00;5.55;;;;;;;;;;4997116;28;20120;-88
2022/06/21 00:17:12;;;;;;;7.85;5.40;;;;;;;;;;5014988;28;20045;-89
2022/06/21 00:19:40;;;;;;;6.50;5.80;;;;;;;;;;4996768;28;20026;-89
2022/06/21 00:22:09;;;;;;;7.40;5.55;;;;;;;;;;4997148;28;20072;-89
2022/06/21 00:24:35;;;;;;;9.68;6.45;;;;;;;;;;5016681;28;20029;-89
2022/06/21 00:27:02;;;;;;;7.78;5.88;;;;;;;;;;5023641;28;20065;-89
2022/06/21 00:29:28;;;;;;;10.60;6.22;;;;;;;;;;5005387;28;20076;-89
2022/06/21 00:31:54;;;;;;;7.70;5.05;;;;;;;;;;5017635;28;20026;-89
2022/06/21 00:34:21;;;;;;;8.18;6.05;;;;;;;;;;4997031;28;20121;-87
2022/06/21 00:36:48;;;;;;;8.88;6.47;;;;;;;;;;5005628;28;20018;-90
2022/06/21 00:39:18;;;;;;;9.68;6.32;;;;;;;;;;5037805;28;20025;-90
2022/06/21 00:41:48;;;;;;;8.93;6.15;;;;;;;;;;5019776;28;20026;-91
2022/06/21 00:44:20;;;;;;;9.63;5.60;;;;;;;;;;5037265;28;20014;-91
2022/06/21 00:46:52;;;;;;;6.78;5.45;;;;;;;;;;5019757;28;20022;-92
2022/06/21 00:49:23;;;;;;;8.85;5.70;;;;;;;;;;5024489;28;20038;-89
2022/06/21 00:51:51;;;;;;;10.82;6.22;;;;;;;;;;5013700;28;20417;-87
2022/06/21 00:54:17;;;;;;;7.95;5.90;;;;;;;;;;4995862;28;20059;-88
2022/06/21 00:56:52;;;;;;;8.25;5.53;;;;;;;;;;4995627;28;20018;-89
2022/06/21 00:59:26;;;;;;;9.15;5.07;;;;;;;;;;4995791;28;20014;-89
2022/06/21 01:01:55;;;;;;;9.05;5.50;;;;;;;;;;4995319;28;20026;-89
2022/06/21 01:04:22;;;;;;;9.85;5.60;;;;;;;;;;4995242;28;20052;-88
2022/06/21 01:06:50;;;;;;;9.40;5.63;;;;;;;;;;4995581;28;20037;-88
2022/06/21 01:09:32;;;;;;;8.68;5.20;;;;;;;;;;5026165;28;20060;-89
2022/06/21 01:11:58;;;;;;;7.40;5.40;;;;;;;;;;5012777;28;20055;-89
2022/06/21 01:14:25;;;;;;;9.73;4.95;;;;;;;;;;5011917;28;20509;-89
2022/06/21 01:16:51;;;;;;;7.88;4.72;;;;;;;;;;5012686;28;20054;-90
2022/06/21 01:19:40;;;;;;;9.90;5.40;;;;;;;;;;4990872;28;20023;-89
2022/06/21 01:22:12;;;;;;;7.38;5.00;;;;;;;;;;4991396;28;20045;-87
2022/06/21 01:24:43;;;;;;;9.68;5.40;;;;;;;;;;4992923;28;20033;-88
2022/06/21 01:27:09;;;;;;;14.55;5.50;;;;;;;;;;4993064;28;20061;-88
2022/06/21 01:29:35;;;;;;;10.65;5.03;;;;;;;;;;4975523;28;20057;-88
2022/06/21 01:32:04;;;;;;;8.13;5.05;;;;;;;;;;4975205;28;20536;-88
2022/06/21 01:34:31;;;;;;;7.40;4.88;;;;;;;;;;4975556;28;20031;-90
2022/06/21 01:36:57;;;;;;;8.63;5.15;;;;;;;;;;4975256;28;20060;-88
2022/06/21 01:39:32;;;;;;;7.43;4.75;;;;;;;;;;4993146;28;20110;-89
2022/06/21 01:42:02;;;;;;;11.45;5.07;;;;;;;;;;4992697;28;20459;-88
2022/06/21 01:44:30;;;;;;;8.60;5.07;;;;;;;;;;4975280;28;20037;-88
2022/06/21 01:46:56;;;;;;;9.27;4.88;;;;;;;;;;4975597;28;20027;-87
2022/06/21 01:49:25;;;;;;;6.97;4.97;;;;;;;;;;4975059;28;20034;-88
2022/06/21 01:51:59;;;;;;;9.20;5.28;;;;;;;;;;4992536;28;20035;-88
2022/06/21 01:54:30;;;;;;;10.68;4.95;;;;;;;;;;4992671;28;20035;-89
2022/06/21 01:56:56;;;;;;;;;;;;;;;;;;4993095;28;20018;-88
2022/06/21 01:59:24;;;;;;;7.63;4.78;;;;;;;;;;5010621;28;19912;-89
2022/06/21 02:01:53;;;;;;;7.47;4.55;;;;;;;;;;4994612;28;20018;-88
2022/06/21 02:04:22;;;;;;;9.00;4.93;;;;;;;;;;4994688;28;20057;-88
2022/06/21 02:06:49;;;;;;;10.13;4.88;;;;;;;;;;5012139;28;20022;-88
2022/06/21 02:09:18;;;;;;;6.82;4.28;;;;;;;;;;4994437;28;20022;-87
2022/06/21 02:11:49;;;;;;;6.85;4.10;;;;;;;;;;4994278;28;20022;-89
2022/06/21 02:14:29;;;;;;;6.00;4.28;;;;;;;;;;4993283;28;20125;-87
2022/06/21 02:17:00;;;;;;;8.77;4.63;;;;;;;;;;5011989;28;20018;-88
2022/06/21 02:19:38;;;;;;;7.05;4.00;;;;;;;;;;4994135;28;20030;-89
2022/06/21 02:22:05;;;;;;;5.25;3.92;;;;;;;;;;4994615;28;20458;-88
2022/06/21 02:24:32;;;;;;;6.90;4.18;;;;;;;;;;4994981;28;20137;-87
2022/06/21 02:27:00;;;;;;;4.75;3.97;;;;;;;;;;4994332;28;20030;-88
2022/06/21 02:29:27;;;;;;;6.57;3.92;;;;;;;;;;4994172;28;20460;-89
2022/06/21 02:31:53;;;;;;;4.75;3.95;;;;;;;;;;4993916;28;20343;-88
2022/06/21 02:34:28;;;;;;;5.05;3.88;;;;;;;;;;5012529;28;20026;-89
2022/06/21 02:36:57;;;;;;;5.68;4.63;;;;;;;;;;5012855;28;20038;-89
2022/06/21 02:39:24;;;;;;;7.40;3.70;;;;;;;;;;5024563;28;20048;-90
2022/06/21 02:41:53;;;;;;;8.73;4.57;;;;;;;;;;5035548;28;20037;-91
2022/06/21 02:44:22;;;;;;;5.13;3.53;;;;;;;;;;5021203;28;20094;-92
2022/06/21 02:46:52;;;;;;;4.20;3.20;;;;;;;;;;5017965;28;20045;-90
2022/06/21 02:49:24;;;;;;;12.23;4.35;;;;;;;;;;4997764;28;20026;-89
2022/06/21 02:51:57;;;;;;;5.78;3.45;;;;;;;;;;5015209;28;20026;-90
2022/06/21 02:54:25;;;;;;;6.47;3.70;;;;;;;;;;4997866;28;20021;-90
2022/06/21 02:56:54;;;;;;;7.32;4.07;;;;;;;;;;4998222;28;20032;-90
2022/06/21 02:59:20;;;;;;;4.88;3.08;;;;;;;;;;5015659;28;20022;-89
2022/06/21 03:01:53;;;;;;;4.93;3.60;;;;;;;;;;4997675;28;20121;-89
2022/06/21 03:04:21;;;;;;;5.72;3.70;;;;;;;;;;5015214;28;20096;-89
2022/06/21 03:06:47;;;;;;;8.68;4.28;;;;;;;;;;4998183;28;20022;-88
2022/06/21 03:09:16;;;;;;;6.65;3.63;;;;;;;;;;5026369;28;20034;-91
2022/06/21 03:11:45;;;;;;;4.75;3.45;;;;;;;;;;5015624;28;20393;-89
2022/06/21 03:14:16;;;;;;;4.85;3.65;;;;;;;;;;5014865;28;20018;-91
2022/06/21 03:16:43;;;;;;;11.50;3.30;;;;;;;;;;4997512;28;20060;-90
2022/06/21 03:19:15;;;;;;;4.15;3.17;;;;;;;;;;4997987;28;20029;-90
2022/06/21 03:21:41;;;;;;;4.85;3.53;;;;;;;;;;4998505;28;20037;-90
2022/06/21 03:24:11;;;;;;;5.18;2.83;;;;;;;;;;4997663;28;20811;-90
2022/06/21 03:26:39;;;;;;;3.85;3.22;;;;;;;;;;4998210;28;20081;-90
2022/06/21 03:29:05;;;;;;;5.30;3.03;;;;;;;;;;5016435;28;20026;-90
2022/06/21 03:31:33;;;;;;;4.63;2.60;;;;;;;;;;5015590;28;20128;-90
2022/06/21 03:34:04;;;;;;;7.47;2.78;;;;;;;;;;5026235;28;20053;-90
2022/06/21 03:36:30;;;;;;;5.07;2.83;;;;;;;;;;5030770;28;20133;-90
2022/06/21 03:39:08;;;;;;;4.00;2.92;;;;;;;;;;5029126;28;20140;-90
2022/06/21 03:41:43;;;;;;;4.30;2.80;;;;;;;;;;5052876;28;20034;-88
2022/06/21 03:44:13;;;;;;;3.35;2.40;;;;;;;;;;5053321;28;20025;-90
2022/06/21 03:46:43;;;;;;;3.80;2.42;;;;;;;;;;5034771;28;20422;-89
2022/06/21 03:49:23;;;;;;;3.08;2.40;;;;;;;;;;5027873;28;20033;-90
2022/06/21 03:51:50;;;;;;;2.80;2.22;;;;;;;;;;5017860;28;20036;-90
2022/06/21 03:54:23;;;;;;;6.85;2.20;;;;;;;;;;5015139;28;20033;-89
2022/06/21 03:56:49;;;;;;;3.50;2.20;;;;;;;;;;4997390;28;20033;-90
2022/06/21 03:59:21;;;;;;;3.17;1.83;;;;;;;;;;4997065;28;20025;-89
2022/06/21 04:01:47;;;;;;;2.90;1.98;;;;;;;;;;4997205;28;20026;-90
2022/06/21 04:04:32;;;;;;;3.67;1.90;;;;;;;;;;4996904;28;20026;-90
2022/06/21 04:07:02;;;;;;;2.83;1.95;;;;;;;;;;4995867;28;20030;-88
2022/06/21 04:09:43;;;;;;;3.72;1.75;;;;;;;;;;4977745;28;20027;-89
2022/06/21 04:12:13;;;;;;;6.20;1.73;;;;;;;;;;4997297;28;20026;-88
2022/06/21 04:14:45;;;;;;;4.35;1.80;;;;;;;;;;5058872;23;20052;-86
2022/06/21 04:17:26;;;;;;;4.05;1.70;;;;;;;;;;5033380;28;20481;-87
2022/06/21 04:19:55;;;;;;;3.00;1.50;;;;;;;;;;5014222;28;20021;-87
2022/06/21 04:22:27;;;;;;;6.20;1.88;;;;;;;;;;5033762;28;20481;-87
2022/06/21 04:24:53;;;;;;;2.85;1.60;;;;;;;;;;5034380;28;20158;-88
2022/06/21 04:27:24;;;;;;;2.65;1.83;;;;;;;;;;5005674;28;20548;-86
2022/06/21 04:30:05;;;;;;;2.75;1.55;;;;;;;;;;4992331;28;20497;-87
2022/06/21 04:32:34;;;;;;;5.57;1.90;;;;;;;;;;4994466;28;20049;-85
2022/06/21 04:35:20;;;;;;;4.70;1.60;;;;;;;;;;4993469;28;20061;-86
2022/06/21 04:37:51;;;;;;;3.45;1.60;;;;;;;;;;4977443;28;20030;-87
2022/06/21 04:40:37;;;;;;;6.28;1.73;;;;;;;;;;4998006;28;20053;-86
2022/06/21 04:43:09;;;;;;;7.25;2.45;;;;;;;;;;4995187;28;20026;-86
2022/06/21 04:45:46;;;;;;;4.65;2.03;;;;;;;;;;5004521;28;20057;-86
2022/06/21 04:48:25;;;;;;;4.88;1.73;;;;;;;;;;5006364;28;20095;-86
2022/06/21 04:50:56;;;;;;;5.00;1.95;;;;;;;;;;5007826;28;20030;-86
2022/06/21 04:53:33;;;;;;;3.38;1.80;;;;;;;;;;5029486;28;20064;-86
2022/06/21 04:56:12;;;;;;;3.38;1.73;;;;;;;;;;5033718;28;20030;-87
2022/06/21 04:58:38;;;;;;;2.22;1.50;;;;;;;;;;5016042;28;20075;-86
2022/06/21 05:01:29;;;;;;;6.38;1.90;;;;;;;;;;5028826;28;20045;-87
2022/06/21 05:03:52;;;;;;;3.92;1.67;;;;;;;;;;5041878;28;20021;-85
2022/06/21 05:06:19;;;;;;;7.43;1.83;;;;;;;;;;5033372;28;20113;-85
2022/06/21 05:08:47;;;;;;;3.30;1.50;;;;;;;;;;5003198;28;20029;-85
2022/06/21 05:11:13;;;;;;;2.08;1.60;;;;;;;;;;5019533;28;20022;-84
2022/06/21 05:13:42;;;;;;;5.57;2.00;;;;;;;;;;5019530;28;20033;-85
2022/06/21 05:16:17;;;;;;;6.22;1.92;;;;;;;;;;5000568;28;20132;-86
2022/06/21 05:18:44;;;;;;;5.13;1.70;;;;;;;;;;5005142;28;20030;-86
2022/06/21 05:21:23;;;;;;;3.75;1.90;;;;;;;;;;5002152;28;20018;-85
2022/06/21 05:23:49;;;;;;;3.75;1.88;;;;;;;;;;5000604;28;20029;-84
2022/06/21 05:26:21;;;;;;;4.32;1.83;;;;;;;;;;5020308;28;20030;-85
2022/06/21 05:28:59;;;;;;;4.70;1.70;;;;;;;;;;5010362;28;20034;-86
2022/06/21 05:31:27;;;;;;;5.82;1.83;;;;;;;;;;5000052;28;20034;-85
2022/06/21 05:33:55;;;;;;;10.75;1.85;;;;;;;;;;5003208;28;20050;-86
2022/06/21 05:36:23;;;;;;;3.83;2.05;;;;;;;;;;4993603;28;20029;-85
2022/06/21 05:38:53;;;;;;;4.65;1.75;;;;;;;;;;5001039;28;20027;-85
2022/06/21 05:41:30;;;;;;;2.45;1.65;;;;;;;;;;5020497;28;20104;-86
2022/06/21 05:44:13;;;;;;;3.85;1.73;;;;;;;;;;5006476;28;20018;-86
2022/06/21 05:46:45;;;;;;;5.63;2.05;;;;;;;;;;5004039;28;20037;-86
2022/06/21 05:49:23;;;;;;;7.10;2.08;;;;;;;;;;4996590;28;20026;-86
2022/06/21 05:51:49;;;;;;;5.60;1.92;;;;;;;;;;5000490;28;20050;-86
2022/06/21 05:54:17;;;;;;;4.72;1.77;;;;;;;;;;5024076;28;20568;-87
2022/06/21 05:56:43;;;;;;;3.83;1.98;;;;;;;;;;4996156;28;20557;-87
2022/06/21 05:59:15;;;;;;;4.47;1.95;;;;;;;;;;4992167;28;20030;-86
2022/06/21 06:01:47;;;;;;;6.63;1.92;;;;;;;;;;4991999;28;20117;-86
2022/06/21 06:04:25;;;;;;;5.90;1.63;;;;;;;;;;4993156;28;20394;-87
2022/06/21 06:06:54;;;;;;;3.30;2.13;;;;;;;;;;4994386;28;20022;-87
2022/06/21 06:09:25;;;;;;;5.10;1.75;;;;;;;;;;4985245;28;20034;-86
2022/06/21 06:12:00;;;;;;;4.75;1.80;;;;;;;;;;4997700;28;20033;-86
2022/06/21 06:14:45;;;;;;;3.33;1.90;;;;;;;;;;4991871;28;20027;-87
2022/06/21 06:17:17;;;;;;;5.05;2.03;;;;;;;;;;4992376;28;20034;-87
2022/06/21 06:19:46;;;;;;;6.97;1.75;;;;;;;;;;5005912;28;20022;-87
2022/06/21 06:22:20;;;;;;;6.68;1.77;;;;;;;;;;5004655;28;20030;-86
2022/06/21 06:25:06;;;;;;;4.28;1.70;;;;;;;;;;5009662;28;20072;-86
2022/06/21 06:27:35;;;;;;;6.80;2.00;;;;;;;;;;5027744;28;20092;-86
2022/06/21 06:30:03;;;;;;;5.97;1.70;;;;;;;;;;5007122;28;20401;-85
2022/06/21 06:32:58;;;;;;;4.55;1.80;;;;;;;;;;5015364;28;20028;-88
2022/06/21 06:35:25;;;;;;;6.90;1.85;;;;;;;;;;4919715;28;20040;-87
2022/06/21 06:37:52;;;;;;;5.93;1.77;;;;;;;;;;5003256;28;20370;-87
2022/06/21 06:40:21;;;;;;;6.35;1.95;;;;;;;;;;4991178;28;20497;-86
2022/06/21 06:42:49;;;;;;;6.80;2.00;;;;;;;;;;5015712;28;20030;-86
2022/06/21 06:45:23;;;;;;;4.82;2.35;;;;;;;;;;5029199;28;20042;-86
2022/06/21 06:47:51;;;;;;;8.70;2.10;;;;;;;;;;5007650;28;20042;-86
2022/06/21 06:50:23;;;;;;;8.50;2.10;;;;;;;;;;5012194;28;20501;-87
2022/06/21 06:53:12;;;;;;;6.30;1.92;;;;;;;;;;5015126;28;20104;-86
2022/06/21 06:55:49;;;;;;;7.82;2.83;;;;;;;;;;5019406;28;20491;-86
2022/06/21 06:58:35;;;;;;;3.97;2.58;;;;;;;;;;5035229;28;20026;-86
2022/06/21 07:01:06;;;;;;;8.50;2.20;;;;;;;;;;5032206;28;20109;-86
2022/06/21 07:03:42;;;;;;;8.23;2.50;;;;;;;;;;4994434;28;20033;-86
2022/06/21 07:06:27;;;;;;;4.75;2.05;;;;;;;;;;4995468;28;20058;-86
2022/06/21 07:08:56;;;;;;;5.32;2.30;;;;;;;;;;4998014;28;20045;-86
2022/06/21 07:11:31;;;;;;;3.92;2.25;;;;;;;;;;5000436;28;20034;-86
2022/06/21 07:13:59;;;;;;;5.57;2.40;;;;;;;;;;5001131;28;20026;-85
2022/06/21 07:16:25;;;;;;;3.95;1.85;;;;;;;;;;4994883;28;20034;-86
2022/06/21 07:18:53;;;;;;;5.30;2.00;;;;;;;;;;4998916;28;20022;-85
2022/06/21 07:21:20;;;;;;;5.60;2.15;;;;;;;;;;5017162;28;20124;-86
2022/06/21 07:23:46;;;;;;;3.55;1.90;;;;;;;;;;5022548;28;20037;-86
2022/06/21 07:26:17;;;;;;;2.28;2.03;;;;;;;;;;5009126;28;20033;-86
2022/06/21 07:28:55;;;;;;;5.40;2.20;;;;;;;;;;4994839;28;20030;-86
2022/06/21 07:31:21;;;;;;;5.65;1.90;;;;;;;;;;4999097;28;20490;-86
2022/06/21 07:33:49;;;;;;;2.78;1.65;;;;;;;;;;5011735;28;20037;-86
2022/06/21 07:36:19;;;;;;;9.82;1.85;;;;;;;;;;5012389;28;20091;-86
2022/06/21 07:38:47;;;;;;;2.83;1.77;;;;;;;;;;4992724;28;20030;-87
2022/06/21 07:41:16;;;;;;;7.45;2.30;;;;;;;;;;5000204;28;20026;-87
2022/06/21 07:43:47;;;;;;;5.13;2.00;;;;;;;;;;4997644;28;20026;-86
2022/06/21 07:46:13;;;;;;;;;;;;;;;;;;5009851;28;20509;-86
2022/06/21 07:48:59;;;;;;;4.20;1.88;;;;;;;;;;4978098;28;19914;-86
2022/06/21 07:51:37;;;;;;;3.10;2.00;;;;;;;;;;4994923;28;20019;-86
2022/06/21 07:54:14;;;;;;;4.85;1.67;;;;;;;;;;4994719;28;20320;-87
2022/06/21 07:56:42;;;;;;;7.53;1.98;;;;;;;;;;4994677;28;20041;-86
2022/06/21 07:59:19;;;;;;;5.60;1.50;;;;;;;;;;4994645;28;20116;-86
2022/06/21 08:07:38;;;;;;;4.13;1.70;;;;;;;;;;4996668;28;20089;-85
2022/06/21 08:10:16;;;;;;;4.47;1.90;;;;;;;;;;4981394;28;20046;-86
2022/06/21 08:12:42;;;;;;;4.15;1.70;;;;;;;;;;5005402;28;20107;-86
2022/06/21 08:15:09;;;;;;;9.27;1.60;;;;;;;;;;4991156;28;20497;-86
2022/06/21 08:17:35;;;;;;;3.40;1.70;;;;;;;;;;4999161;28;20049;-86
2022/06/21 08:20:03;;;;;;;6.82;2.35;;;;;;;;;;5008935;28;20068;-86
2022/06/21 08:22:32;;;;;;;4.93;1.67;;;;;;;;;;5012036;28;20049;-86
2022/06/21 08:25:01;;;;;;;5.90;1.83;;;;;;;;;;4993736;28;20545;-87
2022/06/21 08:27:34;;;;;;;5.22;1.33;;;;;;;;;;5009010;28;20112;-86
2022/06/21 08:30:06;;;;;;;2.00;1.77;;;;;;;;;;5025767;28;20034;-85
2022/06/21 08:32:34;;;;;;;3.42;1.58;;;;;;;;;;5014352;28;20029;-86
2022/06/21 08:35:05;;;;;;;5.25;1.73;;;;;;;;;;4995831;28;20030;-86
2022/06/21 08:37:42;;;;;;;4.57;1.30;;;;;;;;;;4997021;28;20030;-86
2022/06/21 08:40:23;;;;;;;3.35;1.60;;;;;;;;;;5002336;28;20112;-86
2022/06/21 08:43:18;;;;;;;3.15;1.80;;;;;;;;;;5009184;28;20275;-86
2022/06/21 08:45:56;;;;;;;4.78;1.63;;;;;;;;;;5048036;28;20034;-86
2022/06/21 08:48:41;;;;;;;4.13;2.08;;;;;;;;;;4990079;28;20060;-85
2022/06/21 08:51:16;;;;;;;3.72;1.40;;;;;;;;;;5017190;28;20417;-86
2022/06/21 08:53:42;;;;;;;3.22;1.70;;;;;;;;;;5010604;28;20038;-86
2022/06/21 08:56:13;;;;;;;2.92;1.80;;;;;;;;;;4997678;28;20435;-86
2022/06/21 08:58:52;;;;;;;3.22;1.63;;;;;;;;;;5001313;28;20030;-86
2022/06/21 09:01:26;;;;;;;5.35;1.80;;;;;;;;;;5022292;28;20026;-86
2022/06/21 09:04:11;;;;;;;5.05;1.90;;;;;;;;;;4997275;28;20053;-85
2022/06/21 09:06:56;;;;;;;3.92;1.80;;;;;;;;;;4995948;28;20062;-86
2022/06/21 09:09:41;;;;;;;5.07;1.75;;;;;;;;;;5012188;28;20088;-87
2022/06/21 09:12:21;;;;;;;5.22;2.08;;;;;;;;;;5011628;28;20022;-87
2022/06/21 09:14:50;;;;;;;4.70;1.88;;;;;;;;;;4996784;28;20038;-86
2022/06/21 09:17:29;;;;;;;4.47;2.08;;;;;;;;;;4993251;28;20104;-87
2022/06/21 09:19:58;;;;;;;3.72;1.83;;;;;;;;;;4995646;28;20022;-85
2022/06/21 09:22:32;;;;;;;2.42;1.65;;;;;;;;;;4994909;28;20030;-86
2022/06/21 09:25:20;;;;;;;6.90;2.08;;;;;;;;;;4977221;28;20490;-86
2022/06/21 09:27:47;;;;;;;3.40;2.20;;;;;;;;;;5023619;28;20022;-86
2022/06/21 09:30:13;;;;;;;6.70;2.13;;;;;;;;;;5003627;28;20211;-86
2022/06/21 09:32:58;;;;;;;4.22;2.25;;;;;;;;;;5032476;28;20033;-87
2022/06/21 09:35:30;;;;;;;7.38;2.28;;;;;;;;;;5005122;28;20076;-87
2022/06/21 09:38:08;;;;;;;3.22;2.22;;;;;;;;;;5026568;28;20053;-85
2022/06/21 09:40:38;;;;;;;4.47;2.05;;;;;;;;;;5007766;28;20030;-87
2022/06/21 09:43:23;;;;;;;5.53;2.80;;;;;;;;;;5011868;28;20029;-87
2022/06/21 09:45:51;;;;;;;5.28;2.05;;;;;;;;;;5003652;28;20577;-87
2022/06/21 09:48:22;;;;;;;6.55;2.80;;;;;;;;;;4998612;28;20031;-87
2022/06/21 09:50:54;;;;;;;6.27;2.30;;;;;;;;;;5003567;28;20113;-87
2022/06/21 09:53:50;;;;;;;4.88;1.95;;;;;;;;;;5002999;28;20029;-86
2022/06/21 09:56:28;;;;;;;4.18;1.95;;;;;;;;;;4938596;28;20043;-87
2022/06/21 09:59:00;;;;;;;7.70;2.55;;;;;;;;;;4993857;28;20018;-86
2022/06/21 10:01:38;;;;;;;4.38;2.05;;;;;;;;;;5014619;28;20022;-86
2022/06/21 10:04:16;;;;;;;6.65;2.42;;;;;;;;;;5013760;28;20044;-85
2022/06/21 10:06:57;;;;;;;4.03;2.42;;;;;;;;;;4995684;28;20050;-86
2022/06/21 10:09:38;;;;;;;3.65;1.75;;;;;;;;;;4994639;28;20038;-87
2022/06/21 10:12:04;;;;;;;4.97;2.03;;;;;;;;;;4993138;28;20037;-87
2022/06/21 10:17:16;;;;;;;3.13;2.17;;;;;;;;;;5034257;28;20034;-93
2022/06/21 10:20:00;;;;;;;7.82;2.42;;;;;;;;;;5039028;28;20022;-94
2022/06/21 10:22:26;;;;;;;5.47;2.38;;;;;;;;;;5025945;28;20022;-93
2022/06/21 10:24:52;;;;;;;5.22;2.60;;;;;;;;;;5030623;28;20034;-95
2022/06/21 10:27:24;;;;;;;4.32;2.33;;;;;;;;;;5031691;28;20022;-92
2022/06/21 10:29:53;;;;;;;4.93;2.50;;;;;;;;;;5004975;28;20011;-92
2022/06/21 10:32:38;;;;;;;5.50;2.22;;;;;;;;;;4995566;28;20115;-94
2022/06/21 10:35:04;;;;;;;3.97;2.08;;;;;;;;;;5016682;28;20027;-96
2022/06/21 10:37:53;;;;;;;5.30;2.28;;;;;;;;;;5015991;28;20087;-95
2022/06/21 10:40:32;;;;;;;5.05;2.72;;;;;;;;;;4982026;28;20041;-95
2022/06/21 10:43:18;;;;;;;4.88;2.58;;;;;;;;;;5016029;28;20031;-95
2022/06/21 10:45:49;;;;;;;4.82;3.08;;;;;;;;;;4976826;28;20086;-93
2022/06/21 10:48:24;;;;;;;6.47;2.72;;;;;;;;;;4980293;28;20015;-94
2022/06/21 10:51:15;;;;;;;7.43;3.25;;;;;;;;;;5003440;28;20074;-94
2022/06/21 10:53:50;;;;;;;7.30;2.40;;;;;;;;;;5007224;28;20052;-95
2022/06/21 11:01:16;;;;;;;3.45;2.72;;;;;;;;;;5016365;28;20114;-93
2022/06/21 11:02:24;;;;;;;3.25;2.80;;;;;;;;;;5018830;28;20022;-94
2022/06/21 11:04:54;;;;;;;4.50;2.63;;;;;;;;;;5001926;28;20041;-90
2022/06/21 11:07:25;;;;;;;5.93;2.70;;;;;;;;;;4993262;28;20023;-93
2022/06/21 11:09:55;;;;;;;5.35;2.38;;;;;;;;;;5022556;28;20042;-95
2022/06/21 11:15:19;;;;;;;4.53;2.50;;;;;;;;;;5020040;28;20393;-95
2022/06/21 11:17:58;;;;;;;3.45;2.47;;;;;;;;;;5019974;28;20086;-95
2022/06/21 11:20:33;;;;;;;4.35;2.75;;;;;;;;;;4990781;28;20030;-90
2022/06/21 11:23:02;;;;;;;7.63;2.63;;;;;;;;;;4994681;28;20057;-90
2022/06/21 11:25:37;;;;;;;5.55;2.28;;;;;;;;;;4995956;28;20076;-89
2022/06/21 11:28:03;;;;;;;5.00;2.90;;;;;;;;;;4995774;28;20042;-90
2022/06/21 11:30:42;;;;;;;7.03;2.80;;;;;;;;;;4977578;28;20094;-90
2022/06/21 11:33:11;;;;;;;7.45;2.83;;;;;;;;;;4996147;28;20037;-90
2022/06/21 11:35:40;;;;;;;5.88;2.58;;;;;;;;;;5011638;28;20034;-90
2022/06/21 11:38:42;;;;;;;3.83;2.28;;;;;;;;;;4995209;28;20022;-91
2022/06/21 11:42:04;;;;;;;4.68;2.40;;;;;;;;;;4954626;28;20069;-91
2022/06/21 11:44:25;;;;;;;4.68;2.58;;;;;;;;;;4980271;28;20030;-93
2022/06/21 11:47:11;;;;;;;6.32;2.67;;;;;;;;;;4995164;28;20033;-90
2022/06/21 11:50:00;;;;;;;4.50;2.50;;;;;;;;;;4993134;28;20034;-88
2022/06/21 11:52:47;;;;;;;7.85;2.25;;;;;;;;;;4993847;28;20087;-90
2022/06/21 11:55:31;;;;;;;3.72;2.35;;;;;;;;;;4995141;28;20031;-87
2022/06/21 11:57:57;;;;;;;3.97;2.55;;;;;;;;;;4994357;28;20053;-86
2022/06/21 12:00:23;;;;;;;10.10;2.17;;;;;;;;;;4995086;28;20034;-89
2022/06/21 12:02:54;;;;;;;4.45;2.10;;;;;;;;;;4993795;28;20414;-87
2022/06/21 12:05:39;;;;;;;3.25;1.80;;;;;;;;;;4993718;28;20029;-91
2022/06/21 12:08:24;;;;;;;4.75;2.20;;;;;;;;;;5001433;28;20044;-90
2022/06/21 12:10:52;;;;;;;4.35;2.50;;;;;;;;;;4975075;28;20041;-89
2022/06/21 12:13:27;;;;;;;3.60;2.40;;;;;;;;;;4974891;28;20066;-88
2022/06/21 12:16:16;;;;;;;7.07;2.72;;;;;;;;;;4987501;28;20046;-91
2022/06/21 12:18:44;;;;;;;2.83;2.30;;;;;;;;;;4994797;28;20483;-92
2022/06/21 12:21:16;;;;;;;4.65;2.28;;;;;;;;;;4977303;28;20057;-91
2022/06/21 12:23:49;;;;;;;4.93;2.40;;;;;;;;;;4997894;28;20019;-89
2022/06/21 12:26:18;;;;;;;6.63;2.60;;;;;;;;;;5010592;28;20026;-91
2022/06/21 12:28:44;;;;;;;5.65;2.30;;;;;;;;;;4993624;28;20537;-91
2022/06/21 12:31:13;;;;;;;4.15;2.60;;;;;;;;;;5014623;28;20033;-91
2022/06/21 12:33:40;;;;;;;6.57;1.98;;;;;;;;;;4987181;28;20026;-88
2022/06/21 12:36:13;;;;;;;5.43;2.40;;;;;;;;;;4989357;28;20472;-90
2022/06/21 12:38:58;;;;;;;6.00;2.50;;;;;;;;;;4983301;28;20505;-89
2022/06/21 12:41:38;;;;;;;5.38;2.38;;;;;;;;;;4998900;28;20030;-90
2022/06/21 12:44:11;;;;;;;5.55;2.40;;;;;;;;;;5000262;28;20491;-89
2022/06/21 12:46:48;;;;;;;4.55;2.30;;;;;;;;;;4996676;28;20072;-89
2022/06/21 12:49:20;;;;;;;5.60;2.88;;;;;;;;;;5002993;28;20041;-91
2022/06/21 12:51:58;;;;;;;5.20;2.22;;;;;;;;;;5019894;28;20026;-91
2022/06/21 12:54:24;;;;;;;5.63;2.55;;;;;;;;;;5015067;28;20014;-91
2022/06/21 12:57:19;;;;;;;3.83;2.45;;;;;;;;;;5021175;28;20022;-92
2022/06/21 12:59:45;;;;;;;9.50;3.00;;;;;;;;;;5030275;28;20022;-91
2022/06/21 13:02:21;;;;;;;4.25;2.10;;;;;;;;;;4987212;28;20463;-91
2022/06/21 13:04:47;;;;;;;4.00;2.55;;;;;;;;;;5000611;28;20068;-92
2022/06/21 13:07:39;;;;;;;7.13;2.40;;;;;;;;;;4998069;28;20026;-91
2022/06/21 13:10:08;;;;;;;10.10;2.50;;;;;;;;;;4964310;28;20438;-90
2022/06/21 13:12:43;;;;;;;5.97;2.22;;;;;;;;;;4981907;28;20026;-90
2022/06/21 13:15:28;;;;;;;5.10;2.22;;;;;;;;;;4993439;28;20030;-89
2022/06/21 13:17:54;;;;;;;6.88;2.25;;;;;;;;;;4976072;28;20030;-92
2022/06/21 13:20:41;;;;;;;6.38;2.90;;;;;;;;;;4993891;28;20043;-90
2022/06/21 13:23:13;;;;;;;5.88;1.85;;;;;;;;;;4976636;28;20023;-90
2022/06/21 13:25:39;;;;;;;7.57;2.33;;;;;;;;;;4976750;28;20097;-91
2022/06/21 13:28:06;;;;;;;3.60;2.10;;;;;;;;;;4975825;28;20490;-91
2022/06/21 13:30:32;;;;;;;6.00;2.63;;;;;;;;;;4993946;28;20137;-89
2022/06/21 13:33:14;;;;;;;5.30;2.25;;;;;;;;;;4993412;28;20514;-90
2022/06/21 13:35:51;;;;;;;4.78;2.45;;;;;;;;;;4993949;28;20030;-89
2022/06/21 13:38:19;;;;;;;10.10;2.40;;;;;;;;;;4993797;28;20097;-88
2022/06/21 13:40:49;;;;;;;5.63;2.65;;;;;;;;;;4976119;28;20042;-91
2022/06/21 13:43:17;;;;;;;9.02;2.63;;;;;;;;;;4975793;28;20033;-92
2022/06/21 13:45:50;;;;;;;6.53;2.67;;;;;;;;;;4993229;28;20030;-90
2022/06/21 13:48:20;;;;;;;10.18;2.70;;;;;;;;;;4975088;28;20030;-90
2022/06/21 13:50:56;;;;;;;6.00;2.42;;;;;;;;;;4993222;28;20117;-89
2022/06/21 13:53:36;;;;;;;9.68;2.50;;;;;;;;;;4991610;28;20045;-88
2022/06/21 13:56:05;;;;;;;9.00;2.85;;;;;;;;;;4993418;28;20023;-90
2022/06/21 13:58:37;;;;;;;6.13;2.50;;;;;;;;;;4978145;28;20057;-87
2022/06/21 14:01:14;;;;;;;6.25;2.50;;;;;;;;;;4995727;28;20066;-89
2022/06/21 14:03:49;;;;;;;5.57;2.38;;;;;;;;;;4995442;28;20050;-90
2022/06/21 14:06:32;;;;;;;8.18;2.70;;;;;;;;;;4988626;28;20029;-87
2022/06/21 14:09:07;;;;;;;7.55;2.60;;;;;;;;;;5009443;28;20030;-89
2022/06/21 14:11:59;;;;;;;4.30;2.28;;;;;;;;;;5004425;28;20033;-88
2022/06/21 14:14:32;;;;;;;5.43;2.58;;;;;;;;;;4973946;28;20125;-89
2022/06/21 14:17:15;;;;;;;9.10;2.80;;;;;;;;;;4975884;28;20026;-88
2022/06/21 14:19:44;;;;;;;6.18;2.70;;;;;;;;;;4975762;28;20018;-90
2022/06/21 14:22:16;;;;;;;8.27;2.72;;;;;;;;;;4975518;28;20126;-89
2022/06/21 14:24:57;;;;;;;7.57;2.45;;;;;;;;;;4992055;28;20018;-87
2022/06/21 14:27:29;;;;;;;3.88;2.65;;;;;;;;;;4997132;28;20062;-88
2022/06/21 14:30:00;;;;;;;5.15;2.60;;;;;;;;;;5006032;28;20046;-89
2022/06/21 14:32:37;;;;;;;6.93;2.33;;;;;;;;;;5006533;28;20030;-87
2022/06/21 14:35:03;;;;;;;5.32;2.35;;;;;;;;;;4976137;28;20046;-88
2022/06/21 14:37:35;;;;;;;7.22;2.65;;;;;;;;;;4975922;28;20046;-90
2022/06/21 14:40:12;;;;;;;4.70;2.45;;;;;;;;;;4984646;28;20512;-92
2022/06/21 14:42:50;;;;;;;4.13;2.35;;;;;;;;;;5015244;28;20018;-95
2022/06/21 14:45:16;;;;;;;6.30;2.53;;;;;;;;;;4994361;28;20026;-90
2022/06/21 14:47:48;;;;;;;4.75;2.35;;;;;;;;;;4980979;28;20029;-92
2022/06/21 14:50:20;;;;;;;5.07;2.45;;;;;;;;;;4999238;28;20444;-93
2022/06/21 14:53:03;;;;;;;7.63;2.33;;;;;;;;;;5001388;28;20027;-91
2022/06/21 14:55:47;;;;;;;7.43;2.80;;;;;;;;;;5000689;28;20090;-93
2022/06/21 14:58:22;;;;;;;5.45;3.08;;;;;;;;;;4994287;28;20049;-94
2022/06/21 15:01:07;;;;;;;6.07;2.30;;;;;;;;;;5000734;28;20034;-93
2022/06/21 15:03:33;;;;;;;5.30;2.00;;;;;;;;;;4979677;28;20054;-93
2022/06/21 15:06:20;;;;;;;5.72;2.40;;;;;;;;;;4981208;28;20015;-92
2022/06/21 15:15:35;;;;;;;4.35;2.28;;;;;;;;;;4997103;28;20046;-93
2022/06/21 15:24:35;;;;;;;4.05;2.38;;;;;;;;;;4989498;28;20114;-93
2022/06/21 15:30:41;;;;;;;5.30;2.88;;;;;;;;;;4999175;28;20513;-92
2022/06/21 15:33:19;;;;;;;4.13;2.20;;;;;;;;;;4983712;28;20498;-93
2022/06/21 15:36:04;;;;;;;6.20;2.33;;;;;;;;;;4999220;28;20053;-93
2022/06/21 15:38:50;;;;;;;9.95;2.75;;;;;;;;;;4997928;28;20026;-92
2022/06/21 15:41:21;;;;;;;5.47;2.97;;;;;;;;;;4995591;28;20018;-91
2022/06/21 15:43:48;;;;;;;8.90;3.00;;;;;;;;;;4995048;28;20022;-88
2022/06/21 15:46:22;;;;;;;5.30;2.78;;;;;;;;;;4995728;28;20080;-92
2022/06/21 15:52:00;;;;;;;4.55;2.40;;;;;;;;;;4998203;28;20060;-93